createdAt,value
2023-02-28T00:04:53.582Z,39.75
2023-02-28T00:05:53.584Z,37.45
2023-02-28T00:06:53.560Z,39.51
2023-02-28T00:07:53.563Z,40.26
2023-02-28T00:08:53.572Z,41.49
2023-02-28T00:09:53.535Z,44.72
2023-02-28T00:10:53.538Z,41.74
2023-02-28T00:11:53.518Z,41.22
2023-02-28T00:13:06.763Z,41.35
2023-02-28T00:13:53.491Z,40.62
2023-02-28T00:14:53.492Z,40.36
2023-02-28T00:15:53.471Z,40.97
2023-02-28T00:16:53.498Z,41.23
2023-02-28T00:17:53.820Z,41.29
2023-02-28T00:18:53.460Z,41.54
2023-02-28T00:19:53.434Z,41.22
2023-02-28T00:20:53.416Z,41.11
2023-02-28T00:21:53.416Z,41.39
2023-02-28T00:22:53.423Z,41.96
2023-02-28T00:23:53.397Z,42.33
2023-02-28T00:24:53.383Z,41.93
2023-02-28T00:28:26.307Z,41.56
2023-02-28T00:29:26.266Z,41.35
2023-02-28T00:30:26.281Z,41.45
2023-02-28T00:31:26.600Z,41.94
2023-02-28T00:32:26.218Z,42.75
2023-02-28T00:33:26.261Z,42.41
2023-02-28T00:34:26.258Z,42.75
2023-02-28T00:35:26.222Z,42.67
2023-02-28T00:36:26.203Z,43.20
2023-02-28T00:37:26.170Z,43.66
2023-02-28T00:38:26.175Z,43.45
2023-02-28T00:39:26.145Z,41.71
2023-02-28T00:40:26.150Z,41.68
2023-02-28T00:41:26.348Z,41.94
2023-02-28T00:42:26.142Z,42.57
2023-02-28T00:43:26.126Z,42.36
2023-02-28T00:44:26.104Z,42.27
2023-02-28T00:45:26.081Z,41.69
2023-02-28T00:46:26.109Z,41.04
2023-02-28T00:47:26.076Z,41.00
2023-02-28T00:48:26.081Z,42.56
2023-02-28T00:49:26.040Z,42.89
2023-02-28T00:50:26.038Z,42.66
2023-02-28T00:51:26.085Z,41.27
2023-02-28T00:52:26.015Z,40.62
2023-02-28T00:53:26.024Z,40.77
2023-02-28T00:54:26.003Z,40.94
2023-02-28T00:55:25.976Z,41.01
2023-02-28T00:56:25.968Z,40.80
2023-02-28T00:57:25.955Z,40.71
2023-02-28T00:58:25.978Z,40.73
2023-02-28T00:59:25.971Z,40.86
2023-02-28T01:00:25.933Z,40.99
2023-02-28T01:01:25.975Z,40.34
2023-02-28T01:02:25.915Z,40.09
2023-02-28T01:03:25.909Z,40.00
2023-02-28T01:04:25.937Z,40.48
2023-02-28T01:05:25.882Z,40.60
2023-02-28T01:06:25.886Z,41.00
2023-02-28T01:07:25.862Z,41.10
2023-02-28T01:08:25.869Z,41.05
2023-02-28T01:09:25.837Z,41.02
2023-02-28T01:10:25.830Z,40.62
2023-02-28T01:11:25.871Z,41.18
2023-02-28T01:12:25.813Z,41.06
2023-02-28T01:13:25.854Z,40.71
2023-02-28T01:14:25.789Z,40.80
2023-02-28T01:15:25.850Z,41.59
2023-02-28T01:16:25.771Z,40.70
2023-02-28T01:17:25.755Z,40.22
2023-02-28T01:18:25.759Z,39.99
2023-02-28T01:19:25.762Z,40.37
2023-02-28T01:20:25.720Z,41.00
2023-02-28T01:21:25.711Z,40.55
2023-02-28T01:22:25.737Z,40.80
2023-02-28T01:23:25.734Z,41.90
2023-02-28T01:24:25.691Z,41.95
2023-02-28T01:25:25.699Z,41.95
2023-02-28T01:26:25.671Z,42.69
2023-02-28T01:27:25.658Z,42.22
2023-02-28T01:28:25.650Z,43.16
2023-02-28T01:29:25.624Z,42.73
2023-02-28T01:30:25.620Z,41.46
2023-02-28T01:31:25.631Z,40.94
2023-02-28T01:32:25.611Z,40.85
2023-02-28T01:33:25.603Z,41.60
2023-02-28T01:34:25.580Z,41.31
2023-02-28T01:35:25.573Z,41.08
2023-02-28T01:36:25.568Z,40.93
2023-02-28T01:37:25.544Z,40.41
2023-02-28T01:38:25.534Z,39.94
2023-02-28T01:39:25.543Z,41.13
2023-02-28T01:40:25.515Z,44.26
2023-02-28T01:41:25.543Z,41.21
2023-02-28T01:42:25.481Z,40.33
2023-02-28T01:43:25.479Z,40.98
2023-02-28T01:44:25.496Z,41.13
2023-02-28T01:45:25.466Z,41.32
2023-02-28T01:46:25.495Z,41.64
2023-02-28T01:47:25.430Z,41.22
2023-02-28T01:48:25.429Z,41.97
2023-02-28T01:49:25.430Z,45.67
2023-02-28T01:50:25.399Z,41.09
2023-02-28T01:51:25.387Z,41.34
2023-02-28T01:52:25.391Z,41.42
2023-02-28T01:53:25.378Z,41.34
2023-02-28T01:54:25.405Z,42.18
2023-02-28T01:55:25.354Z,41.47
2023-02-28T01:56:25.350Z,42.59
2023-02-28T01:57:25.342Z,41.65
2023-02-28T01:58:25.346Z,41.27
2023-02-28T01:59:25.325Z,41.36
2023-02-28T02:00:25.309Z,42.01
2023-02-28T02:01:27.126Z,40.85
2023-02-28T02:05:44.469Z,41.47
2023-02-28T02:06:44.474Z,41.04
2023-02-28T02:07:44.463Z,40.03
2023-02-28T02:08:44.453Z,40.58
2023-02-28T02:09:44.520Z,40.87
2023-02-28T02:10:44.433Z,40.67
2023-02-28T02:11:44.412Z,41.29
2023-02-28T02:12:44.410Z,40.98
2023-02-28T02:13:44.390Z,41.18
2023-02-28T02:14:44.393Z,40.83
2023-02-28T02:15:44.390Z,41.04
2023-02-28T02:16:44.362Z,40.69
2023-02-28T02:17:44.353Z,40.45
2023-02-28T02:18:44.341Z,40.46
2023-02-28T02:19:44.354Z,40.75
2023-02-28T02:20:44.317Z,40.75
2023-02-28T02:21:44.306Z,40.87
2023-02-28T02:22:44.305Z,41.33
2023-02-28T02:23:44.302Z,41.49
2023-02-28T02:24:44.297Z,42.25
2023-02-28T02:25:44.278Z,41.75
2023-02-28T02:26:44.259Z,42.07
2023-02-28T02:27:44.256Z,42.40
2023-02-28T02:28:44.233Z,45.49
2023-02-28T02:29:44.244Z,41.94
2023-02-28T02:30:44.214Z,40.01
2023-02-28T02:31:44.269Z,40.17
2023-02-28T02:32:44.200Z,41.11
2023-02-28T02:33:44.193Z,40.63
2023-02-28T02:34:44.187Z,40.15
2023-02-28T02:35:44.213Z,44.00
2023-02-28T02:36:44.155Z,40.59
2023-02-28T02:37:44.138Z,45.24
2023-02-28T02:38:44.150Z,41.52
2023-02-28T02:39:44.132Z,40.81
2023-02-28T02:40:44.116Z,40.92
2023-02-28T02:41:44.092Z,41.00
2023-02-28T02:42:44.089Z,40.73
2023-02-28T02:43:44.084Z,44.85
2023-02-28T02:44:44.082Z,41.22
2023-02-28T02:45:44.085Z,41.04
2023-02-28T02:46:44.151Z,40.64
2023-02-28T02:47:44.026Z,41.06
2023-02-28T02:48:44.020Z,41.18
2023-02-28T02:49:44.020Z,40.57
2023-02-28T02:50:44.004Z,40.09
2023-02-28T02:51:43.990Z,39.55
2023-02-28T02:52:43.982Z,40.96
2023-02-28T02:53:43.974Z,41.05
2023-02-28T02:54:43.981Z,44.16
2023-02-28T02:55:43.940Z,42.10
2023-02-28T02:56:43.942Z,41.34
2023-02-28T02:57:43.933Z,41.02
2023-02-28T02:58:43.941Z,41.73
2023-02-28T02:59:43.920Z,41.18
2023-02-28T03:00:43.909Z,42.66
2023-02-28T03:01:43.875Z,44.80
2023-02-28T03:02:43.871Z,41.85
2023-02-28T03:03:43.921Z,42.02
2023-02-28T03:04:43.860Z,42.05
2023-02-28T03:05:43.840Z,44.01
2023-02-28T03:06:43.826Z,42.70
2023-02-28T03:07:43.821Z,42.76
2023-02-28T03:08:43.808Z,42.73
2023-02-28T03:09:43.815Z,42.99
2023-02-28T03:10:43.791Z,42.97
2023-02-28T03:11:43.775Z,42.87
2023-02-28T03:12:43.774Z,42.69
2023-02-28T03:13:43.786Z,41.68
2023-02-28T03:14:43.740Z,42.69
2023-02-28T03:15:43.736Z,42.53
2023-02-28T03:16:43.722Z,42.06
2023-02-28T03:17:43.706Z,40.99
2023-02-28T03:18:43.706Z,40.90
2023-02-28T03:19:43.685Z,40.96
2023-02-28T03:20:43.696Z,40.72
2023-02-28T03:21:43.662Z,40.99
2023-02-28T03:22:43.659Z,40.51
2023-02-28T03:23:43.662Z,40.51
2023-02-28T03:24:43.646Z,40.32
2023-02-28T03:25:43.638Z,41.01
2023-02-28T03:26:43.676Z,41.15
2023-02-28T03:27:43.630Z,41.18
2023-02-28T03:28:43.609Z,41.77
2023-02-28T03:29:43.592Z,49.65
2023-02-28T03:30:43.625Z,43.91
2023-02-28T03:31:43.613Z,41.06
2023-02-28T03:32:43.586Z,41.14
2023-02-28T03:33:43.556Z,44.61
2023-02-28T03:34:43.545Z,41.61
2023-02-28T03:35:43.548Z,41.43
2023-02-28T03:36:43.534Z,41.21
2023-02-28T03:37:43.509Z,41.81
2023-02-28T03:38:43.507Z,42.10
2023-02-28T03:39:43.506Z,42.51
2023-02-28T03:40:43.490Z,47.90
2023-02-28T03:41:43.469Z,44.46
2023-02-28T03:42:43.462Z,42.87
2023-02-28T03:43:43.455Z,42.14
2023-02-28T03:44:43.443Z,42.21
2023-02-28T03:45:43.478Z,41.63
2023-02-28T03:46:43.427Z,42.13
2023-02-28T03:47:43.400Z,42.10
2023-02-28T03:48:43.395Z,41.89
2023-02-28T03:49:43.391Z,43.03
2023-02-28T03:50:43.390Z,43.70
2023-02-28T03:51:43.401Z,41.75
2023-02-28T03:52:43.354Z,41.93
2023-02-28T03:53:44.534Z,42.05
2023-02-28T03:54:44.524Z,41.84
2023-02-28T03:55:44.521Z,41.63
2023-02-28T03:56:44.502Z,41.15
2023-02-28T03:57:44.529Z,41.47
2023-02-28T03:58:44.512Z,44.62
2023-02-28T03:59:44.460Z,42.16
2023-02-28T04:00:44.471Z,45.50
2023-02-28T04:01:44.447Z,42.41
2023-02-28T04:02:44.403Z,41.41
2023-02-28T04:03:44.415Z,41.73
2023-02-28T04:04:44.429Z,41.58
2023-02-28T04:05:44.424Z,41.68
2023-02-28T04:06:44.380Z,41.16
2023-02-28T04:07:44.396Z,43.97
2023-02-28T04:08:44.370Z,42.16
2023-02-28T04:09:44.366Z,42.02
2023-02-28T04:10:44.382Z,41.48
2023-02-28T04:11:44.379Z,48.76
2023-02-28T04:12:44.344Z,47.03
2023-02-28T04:13:46.137Z,44.51
2023-02-28T04:14:44.336Z,41.69
2023-02-28T04:15:44.366Z,44.51
2023-02-28T04:16:44.392Z,44.19
2023-02-28T04:17:44.272Z,46.75
2023-02-28T04:18:44.295Z,49.84
2023-02-28T04:19:44.263Z,43.97
2023-02-28T04:20:44.269Z,46.79
2023-02-28T04:21:44.238Z,50.26
2023-02-28T04:22:44.230Z,42.49
2023-02-28T04:23:44.231Z,43.08
2023-02-28T04:24:44.193Z,48.87
2023-02-28T04:25:44.263Z,43.95
2023-02-28T04:26:44.204Z,49.47
2023-02-28T04:27:44.254Z,46.28
2023-02-28T04:28:44.190Z,46.87
2023-02-28T04:29:44.157Z,46.30
2023-02-28T04:30:44.191Z,47.39
2023-02-28T04:31:44.170Z,43.16
2023-02-28T04:32:44.200Z,52.11
2023-02-28T04:33:44.113Z,48.32
2023-02-28T04:34:44.104Z,47.89
2023-02-28T04:35:44.161Z,45.93
2023-02-28T04:36:44.084Z,43.12
2023-02-28T04:37:44.082Z,45.59
2023-02-28T04:38:44.077Z,46.71
2023-02-28T04:39:44.107Z,48.53
2023-02-28T04:40:44.091Z,51.64
2023-02-28T04:41:44.034Z,45.76
2023-02-28T04:42:44.039Z,45.24
2023-02-28T04:43:44.015Z,42.27
2023-02-28T04:44:44.035Z,44.98
2023-02-28T04:45:44.098Z,45.90
2023-02-28T04:46:44.005Z,42.18
2023-02-28T04:47:43.987Z,41.71
2023-02-28T04:48:43.982Z,45.14
2023-02-28T04:49:43.958Z,47.95
2023-02-28T04:50:44.009Z,42.70
2023-02-28T04:51:43.944Z,51.29
2023-02-28T04:52:43.930Z,47.83
2023-02-28T04:53:43.936Z,44.48
2023-02-28T04:54:43.924Z,48.25
2023-02-28T04:55:43.899Z,41.80
2023-02-28T04:56:43.917Z,43.16
2023-02-28T04:57:43.907Z,42.89
2023-02-28T04:58:43.892Z,42.62
2023-02-28T04:59:43.861Z,42.12
2023-02-28T05:00:43.852Z,41.83
2023-02-28T05:01:43.859Z,52.41
2023-02-28T05:02:43.813Z,43.18
2023-02-28T05:03:43.816Z,47.24
2023-02-28T05:04:43.858Z,49.30
2023-02-28T05:05:43.828Z,50.20
2023-02-28T05:06:43.863Z,52.79
2023-02-28T05:07:43.817Z,48.01
2023-02-28T05:08:43.814Z,45.25
2023-02-28T05:09:43.802Z,44.24
2023-02-28T05:10:43.797Z,49.34
2023-02-28T05:11:43.746Z,47.49
2023-02-28T05:12:43.740Z,48.91
2023-02-28T05:13:43.718Z,54.46
2023-02-28T05:14:43.728Z,49.07
2023-02-28T05:15:43.728Z,45.88
2023-02-28T05:16:43.730Z,49.60
2023-02-28T05:17:43.701Z,50.70
2023-02-28T05:18:43.767Z,50.35
2023-02-28T05:19:43.683Z,42.63
2023-02-28T05:20:43.671Z,43.81
2023-02-28T05:21:43.644Z,49.06
2023-02-28T05:22:43.642Z,49.88
2023-02-28T05:23:43.639Z,50.35
2023-02-28T05:24:43.665Z,43.12
2023-02-28T05:25:43.609Z,43.31
2023-02-28T05:26:43.677Z,43.35
2023-02-28T05:27:43.600Z,46.13
2023-02-28T05:28:43.580Z,49.17
2023-02-28T05:29:43.558Z,52.80
2023-02-28T05:30:43.554Z,50.06
2023-02-28T05:31:43.749Z,48.85
2023-02-28T05:32:43.535Z,45.07
2023-02-28T05:33:43.548Z,46.98
2023-02-28T05:34:43.534Z,51.66
2023-02-28T05:35:43.619Z,50.56
2023-02-28T05:36:43.524Z,48.99
2023-02-28T05:37:43.463Z,42.91
2023-02-28T05:38:43.513Z,49.78
2023-02-28T05:39:43.461Z,46.41
2023-02-28T05:40:43.490Z,49.26
2023-02-28T05:41:43.517Z,49.74
2023-02-28T05:42:43.430Z,48.56
2023-02-28T05:43:43.447Z,48.61
2023-02-28T05:44:43.421Z,48.72
2023-02-28T05:45:43.560Z,49.32
2023-02-28T05:46:43.407Z,46.91
2023-02-28T05:47:43.449Z,46.90
2023-02-28T05:48:43.463Z,47.46
2023-02-28T05:49:43.377Z,47.60
2023-02-28T05:50:43.395Z,51.93
2023-02-28T05:51:43.410Z,52.37
2023-02-28T05:52:43.361Z,50.42
2023-02-28T05:53:43.318Z,47.31
2023-02-28T05:54:43.354Z,47.65
2023-02-28T05:55:43.311Z,52.32
2023-02-28T05:56:43.337Z,49.95
2023-02-28T05:57:43.313Z,48.86
2023-02-28T05:58:43.305Z,54.14
2023-02-28T05:59:43.261Z,50.88
2023-02-28T06:00:43.256Z,51.12
2023-02-28T06:01:43.307Z,51.80
2023-02-28T06:02:43.250Z,60.46
2023-02-28T06:03:43.345Z,50.44
2023-02-28T06:04:43.194Z,45.11
2023-02-28T06:05:43.256Z,44.93
2023-02-28T06:06:43.246Z,50.29
2023-02-28T06:07:43.234Z,49.37
2023-02-28T06:08:43.183Z,49.75
2023-02-28T06:09:43.199Z,53.49
2023-02-28T06:10:43.181Z,50.45
2023-02-28T06:11:43.179Z,51.90
2023-02-28T06:12:43.190Z,44.56
2023-02-28T06:13:43.105Z,52.13
2023-02-28T06:14:43.124Z,49.26
2023-02-28T06:15:43.148Z,55.72
2023-02-28T06:16:43.135Z,50.32
2023-02-28T06:17:43.109Z,51.62
2023-02-28T06:18:43.094Z,46.69
2023-02-28T06:19:43.128Z,55.62
2023-02-28T06:20:43.047Z,49.70
2023-02-28T06:21:43.059Z,49.80
2023-02-28T06:22:43.077Z,55.70
2023-02-28T06:23:43.102Z,49.45
2023-02-28T06:24:43.092Z,56.91
2023-02-28T06:25:43.056Z,52.62
2023-02-28T06:26:43.040Z,50.56
2023-02-28T06:27:43.005Z,53.12
2023-02-28T06:28:42.984Z,48.90
2023-02-28T06:29:42.985Z,51.77
2023-02-28T06:30:44.473Z,49.20
2023-02-28T06:31:43.012Z,51.77
2023-02-28T06:32:42.992Z,51.14
2023-02-28T06:33:42.909Z,50.39
2023-02-28T06:34:42.901Z,53.70
2023-02-28T06:35:42.955Z,50.67
2023-02-28T06:36:42.859Z,51.80
2023-02-28T06:37:42.924Z,54.31
2023-02-28T06:38:42.897Z,56.55
2023-02-28T06:39:42.917Z,48.87
2023-02-28T06:40:42.872Z,51.84
2023-02-28T06:41:54.647Z,50.56
2023-02-28T06:42:44.859Z,53.91
2023-02-28T06:43:42.842Z,53.15
2023-02-28T06:44:42.833Z,52.76
2023-02-28T06:45:42.834Z,52.96
2023-02-28T06:46:42.875Z,51.43
2023-02-28T06:47:42.812Z,53.68
2023-02-28T06:48:42.788Z,48.98
2023-02-28T06:49:42.948Z,47.62
2023-02-28T06:50:42.775Z,53.22
2023-02-28T06:51:42.767Z,53.95
2023-02-28T06:52:42.796Z,52.80
2023-02-28T06:53:42.762Z,50.59
2023-02-28T06:54:42.727Z,52.37
2023-02-28T06:55:42.742Z,54.35
2023-02-28T06:56:42.720Z,50.94
2023-02-28T06:57:42.728Z,49.46
2023-02-28T06:58:42.682Z,50.51
2023-02-28T06:59:43.030Z,52.42
2023-02-28T07:00:42.760Z,51.46
2023-02-28T07:01:42.730Z,53.85
2023-02-28T07:02:42.718Z,54.01
2023-02-28T07:03:42.686Z,53.93
2023-02-28T07:04:43.021Z,51.55
2023-02-28T07:05:42.686Z,49.05
2023-02-28T07:06:42.701Z,47.77
2023-02-28T07:07:42.669Z,49.56
2023-02-28T07:08:42.625Z,51.51
2023-02-28T07:09:42.627Z,54.71
2023-02-28T07:10:42.592Z,50.08
2023-02-28T07:11:42.559Z,51.45
2023-02-28T07:12:42.635Z,49.37
2023-02-28T07:13:42.644Z,50.18
2023-02-28T07:14:42.527Z,47.39
2023-02-28T07:15:44.262Z,50.70
2023-02-28T07:16:43.502Z,49.53
2023-02-28T07:17:42.501Z,46.28
2023-02-28T07:18:42.608Z,47.47
2023-02-28T07:19:42.470Z,51.65
2023-02-28T07:20:42.487Z,46.55
2023-02-28T07:21:42.454Z,52.11
2023-02-28T07:22:42.470Z,51.57
2023-02-28T07:23:42.425Z,52.88
2023-02-28T07:24:42.428Z,50.03
2023-02-28T07:25:42.409Z,49.20
2023-02-28T07:26:42.421Z,53.02
2023-02-28T07:27:42.388Z,45.27
2023-02-28T07:28:43.398Z,45.96
2023-02-28T07:29:42.358Z,47.92
2023-02-28T07:30:42.360Z,51.74
2023-02-28T07:31:42.403Z,50.33
2023-02-28T07:32:44.750Z,50.80
2023-02-28T07:33:43.374Z,47.13
2023-02-28T07:34:42.865Z,53.38
2023-02-28T07:35:42.324Z,47.95
2023-02-28T07:36:42.302Z,53.86
2023-02-28T07:37:42.292Z,47.99
2023-02-28T07:38:42.335Z,49.14
2023-02-28T07:39:42.273Z,57.57
2023-02-28T07:40:42.529Z,58.89
2023-02-28T07:41:42.251Z,58.08
2023-02-28T07:42:42.241Z,58.95
2023-02-28T07:43:42.270Z,57.44
2023-02-28T07:44:42.224Z,58.26
2023-02-28T07:45:42.212Z,57.35
2023-02-28T07:46:42.242Z,66.22
2023-02-28T07:47:42.195Z,53.48
2023-02-28T07:48:42.192Z,50.58
2023-02-28T07:49:42.161Z,53.46
2023-02-28T07:50:43.176Z,48.37
2023-02-28T07:51:42.146Z,47.74
2023-02-28T07:52:42.155Z,46.54
2023-02-28T07:53:42.174Z,51.20
2023-02-28T07:54:42.130Z,48.55
2023-02-28T07:55:42.109Z,52.96
2023-02-28T07:56:42.105Z,47.57
2023-02-28T07:57:42.108Z,51.60
2023-02-28T07:58:42.078Z,57.42
2023-02-28T07:59:42.059Z,45.28
2023-02-28T08:00:42.100Z,47.24
2023-02-28T08:01:42.052Z,48.90
2023-02-28T08:02:42.130Z,52.06
2023-02-28T08:03:42.053Z,49.81
2023-02-28T08:04:42.023Z,48.24
2023-02-28T08:05:41.985Z,49.83
2023-02-28T08:06:41.980Z,47.03
2023-02-28T08:07:41.981Z,57.17
2023-02-28T08:08:41.984Z,47.96
2023-02-28T08:09:41.956Z,51.09
2023-02-28T08:10:41.924Z,48.55
2023-02-28T08:11:41.953Z,52.25
2023-02-28T08:12:41.916Z,47.78
2023-02-28T08:13:41.940Z,45.61
2023-02-28T08:14:41.909Z,51.16
2023-02-28T08:15:41.900Z,52.39
2023-02-28T08:16:41.878Z,51.13
2023-02-28T08:17:41.898Z,50.84
2023-02-28T08:18:41.919Z,48.58
2023-02-28T08:19:41.872Z,51.78
2023-02-28T08:20:41.878Z,52.76
2023-02-28T08:21:41.863Z,52.59
2023-02-28T08:22:43.662Z,44.96
2023-02-28T08:23:41.829Z,47.92
2023-02-28T08:24:41.803Z,50.49
2023-02-28T08:25:41.834Z,48.44
2023-02-28T08:26:41.782Z,54.17
2023-02-28T08:27:41.819Z,50.23
2023-02-28T08:28:41.773Z,48.23
2023-02-28T08:29:41.767Z,44.64
2023-02-28T08:30:41.737Z,51.60
2023-02-28T08:31:41.750Z,49.20
2023-02-28T08:32:41.826Z,44.90
2023-02-28T08:33:41.728Z,50.70
2023-02-28T08:34:41.700Z,47.36
2023-02-28T08:35:41.773Z,48.54
2023-02-28T08:36:41.791Z,49.83
2023-02-28T08:37:41.705Z,55.59
2023-02-28T08:38:41.685Z,49.94
2023-02-28T08:39:41.693Z,46.23
2023-02-28T08:40:41.688Z,52.24
2023-02-28T08:41:41.659Z,49.69
2023-02-28T08:42:41.630Z,49.76
2023-02-28T08:43:41.684Z,47.44
2023-02-28T08:44:41.662Z,45.41
2023-02-28T08:45:41.666Z,47.73
2023-02-28T08:46:41.606Z,50.45
2023-02-28T08:47:41.580Z,50.09
2023-02-28T08:48:41.606Z,50.71
2023-02-28T08:49:41.573Z,46.70
2023-02-28T08:50:42.107Z,46.74
2023-02-28T08:51:41.533Z,49.01
2023-02-28T08:52:41.550Z,49.16
2023-02-28T08:53:41.544Z,53.44
2023-02-28T08:54:41.516Z,49.18
2023-02-28T08:55:41.503Z,49.87
2023-02-28T08:56:41.474Z,49.23
2023-02-28T08:57:41.503Z,52.73
2023-02-28T08:58:41.487Z,51.14
2023-02-28T08:59:41.474Z,49.62
2023-02-28T09:00:41.901Z,46.42
2023-02-28T09:01:41.407Z,51.77
2023-02-28T09:02:41.419Z,50.97
2023-02-28T09:03:41.467Z,51.78
2023-02-28T09:04:41.397Z,50.94
2023-02-28T09:05:41.398Z,47.20
2023-02-28T09:06:41.360Z,49.78
2023-02-28T09:07:41.360Z,51.12
2023-02-28T09:08:41.352Z,52.59
2023-02-28T09:09:41.316Z,53.42
2023-02-28T09:10:41.355Z,48.53
2023-02-28T09:11:41.285Z,54.73
2023-02-28T09:12:41.336Z,51.68
2023-02-28T09:13:41.323Z,47.39
2023-02-28T09:14:41.298Z,44.95
2023-02-28T09:15:41.286Z,51.03
2023-02-28T09:16:41.309Z,51.79
2023-02-28T09:17:41.258Z,48.61
2023-02-28T09:18:41.239Z,53.28
2023-02-28T09:19:41.264Z,47.68
2023-02-28T09:20:41.459Z,54.88
2023-02-28T09:21:41.248Z,47.59
2023-02-28T09:22:41.209Z,48.63
2023-02-28T09:23:41.201Z,50.96
2023-02-28T09:25:42.198Z,52.72
2023-02-28T09:26:43.453Z,48.62
2023-02-28T09:27:43.189Z,46.10
2023-02-28T09:28:42.150Z,47.72
2023-02-28T09:29:41.175Z,48.17
2023-02-28T09:30:41.181Z,47.32
2023-02-28T09:31:41.161Z,51.94
2023-02-28T09:32:41.102Z,52.73
2023-02-28T09:33:41.146Z,48.50
2023-02-28T09:34:41.207Z,51.96
2023-02-28T09:35:41.086Z,50.31
2023-02-28T09:36:45.885Z,50.46
2023-02-28T09:37:43.082Z,48.06
2023-02-28T09:38:41.026Z,46.85
2023-02-28T09:39:41.038Z,48.19
2023-02-28T09:40:41.021Z,48.46
2023-02-28T09:41:41.012Z,52.06
2023-02-28T09:42:41.002Z,51.26
2023-02-28T09:43:40.974Z,52.73
2023-02-28T09:44:41.956Z,52.15
2023-02-28T09:45:41.049Z,47.74
2023-02-28T09:46:40.990Z,49.73
2023-02-28T09:47:40.995Z,53.88
2023-02-28T09:48:41.331Z,49.16
2023-02-28T09:49:41.940Z,57.01
2023-02-28T09:50:40.921Z,54.33
2023-02-28T09:51:40.910Z,48.90
2023-02-28T09:52:40.922Z,50.95
2023-02-28T09:53:41.060Z,46.89
2023-02-28T09:54:40.954Z,56.46
2023-02-28T09:55:46.616Z,48.08
2023-02-28T09:56:42.861Z,47.62
2023-02-28T09:57:40.828Z,56.58
2023-02-28T09:58:40.824Z,55.67
2023-02-28T09:59:40.817Z,47.61
2023-02-28T10:00:40.775Z,49.85
2023-02-28T10:01:40.812Z,50.47
2023-02-28T10:02:40.803Z,50.60
2023-02-28T10:03:40.857Z,48.59
2023-02-28T10:04:40.905Z,46.64
2023-02-28T10:05:42.766Z,47.06
2023-02-28T10:06:40.756Z,49.21
2023-02-28T10:07:40.836Z,50.16
2023-02-28T10:08:40.830Z,45.79
2023-02-28T10:09:40.823Z,49.49
2023-02-28T10:10:40.724Z,50.01
2023-02-28T10:11:40.722Z,49.82
2023-02-28T10:12:40.676Z,50.55
2023-02-28T10:13:40.693Z,50.37
2023-02-28T10:14:40.697Z,49.28
2023-02-28T10:15:40.747Z,49.49
2023-02-28T10:16:40.656Z,50.95
2023-02-28T10:17:54.776Z,54.24
2023-02-28T10:18:41.630Z,51.42
2023-02-28T10:19:40.703Z,50.33
2023-02-28T10:20:41.623Z,52.62
2023-02-28T10:21:40.616Z,55.52
2023-02-28T10:22:40.687Z,48.92
2023-02-28T10:23:40.674Z,46.62
2023-02-28T10:24:40.592Z,45.57
2023-02-28T10:25:40.548Z,50.14
2023-02-28T10:26:40.567Z,49.23
2023-02-28T10:27:40.579Z,50.46
2023-02-28T10:28:40.524Z,48.04
2023-02-28T10:29:40.539Z,48.99
2023-02-28T10:30:40.521Z,53.00
2023-02-28T10:31:40.561Z,53.60
2023-02-28T10:32:40.501Z,52.47
2023-02-28T10:33:40.481Z,56.84
2023-02-28T10:34:40.472Z,56.12
2023-02-28T10:35:40.509Z,54.57
2023-02-28T10:36:40.440Z,51.43
2023-02-28T10:37:40.438Z,53.45
2023-02-28T10:38:40.446Z,47.84
2023-02-28T10:39:40.403Z,47.64
2023-02-28T10:40:40.435Z,48.57
2023-02-28T10:41:40.416Z,43.02
2023-02-28T10:42:40.416Z,52.08
2023-02-28T10:43:40.343Z,51.93
2023-02-28T10:44:40.338Z,50.91
2023-02-28T10:45:40.334Z,48.56
2023-02-28T10:46:40.355Z,49.69
2023-02-28T10:47:40.314Z,48.50
2023-02-28T10:48:40.294Z,51.24
2023-02-28T10:49:40.279Z,49.55
2023-02-28T10:50:40.277Z,51.30
2023-02-28T10:51:40.276Z,48.54
2023-02-28T10:52:40.248Z,48.01
2023-02-28T10:53:57.708Z,52.86
2023-02-28T10:54:42.237Z,44.67
2023-02-28T10:55:41.892Z,47.06
2023-02-28T10:56:40.356Z,44.92
2023-02-28T10:57:40.242Z,47.95
2023-02-28T10:58:40.210Z,47.47
2023-02-28T10:59:40.210Z,49.62
2023-02-28T11:00:41.547Z,52.56
2023-02-28T11:01:40.253Z,51.16
2023-02-28T11:02:40.219Z,50.92
2023-02-28T11:03:40.161Z,51.57
2023-02-28T11:04:41.340Z,51.09
2023-02-28T11:05:40.196Z,47.42
2023-02-28T11:06:40.166Z,46.25
2023-02-28T11:07:52.966Z,49.38
2023-02-28T11:08:42.114Z,48.45
2023-02-28T11:09:40.096Z,48.39
2023-02-28T11:10:40.137Z,44.67
2023-02-28T11:11:40.107Z,51.93
2023-02-28T11:12:47.277Z,47.84
2023-02-28T11:13:42.075Z,48.09
2023-02-28T11:14:40.079Z,50.95
2023-02-28T11:15:40.170Z,52.29
2023-02-28T11:16:40.120Z,48.60
2023-02-28T11:17:40.095Z,49.09
2023-02-28T11:18:40.064Z,52.01
2023-02-28T11:19:40.047Z,48.65
2023-02-28T11:20:40.040Z,52.08
2023-02-28T11:21:40.001Z,44.58
2023-02-28T11:22:40.038Z,49.45
2023-02-28T11:23:40.020Z,43.27
2023-02-28T11:24:39.990Z,45.95
2023-02-28T11:25:39.998Z,48.02
2023-02-28T11:26:39.971Z,49.99
2023-02-28T11:27:39.964Z,49.66
2023-02-28T11:28:39.936Z,48.96
2023-02-28T11:29:39.923Z,48.52
2023-02-28T11:30:39.972Z,48.56
2023-02-28T11:31:39.945Z,52.58
2023-02-28T11:32:39.982Z,48.18
2023-02-28T11:33:39.864Z,50.15
2023-02-28T11:34:39.884Z,51.17
2023-02-28T11:35:39.875Z,47.77
2023-02-28T11:36:39.859Z,47.46
2023-02-28T11:37:39.849Z,47.42
2023-02-28T11:38:39.830Z,51.84
2023-02-28T11:39:39.822Z,53.11
2023-02-28T11:40:39.830Z,51.16
2023-02-28T11:41:41.400Z,50.31
2023-02-28T11:42:40.803Z,47.40
2023-02-28T11:43:39.779Z,47.66
2023-02-28T11:44:39.790Z,49.69
2023-02-28T11:45:39.750Z,46.73
2023-02-28T11:46:40.781Z,45.21
2023-02-28T11:47:39.740Z,46.43
2023-02-28T11:48:39.741Z,49.42
2023-02-28T11:49:39.729Z,47.11
2023-02-28T11:50:39.745Z,47.99
2023-02-28T11:51:39.719Z,49.61
2023-02-28T11:52:39.690Z,45.26
2023-02-28T11:53:39.693Z,52.62
2023-02-28T11:54:39.692Z,47.05
2023-02-28T11:55:39.710Z,44.16
2023-02-28T11:56:39.690Z,44.65
2023-02-28T11:57:39.613Z,46.95
2023-02-28T11:58:39.648Z,46.47
2023-02-28T11:59:39.659Z,44.30
2023-02-28T12:00:39.610Z,44.74
2023-02-28T12:01:39.612Z,47.66
2023-02-28T12:02:39.673Z,49.80
2023-02-28T12:03:39.662Z,47.66
2023-02-28T12:04:39.605Z,43.35
2023-02-28T12:05:39.601Z,45.83
2023-02-28T12:06:39.544Z,45.63
2023-02-28T12:07:39.563Z,48.08
2023-02-28T12:08:39.535Z,48.65
2023-02-28T12:09:39.548Z,48.37
2023-02-28T12:10:40.176Z,49.21
2023-02-28T12:11:39.545Z,50.24
2023-02-28T12:12:39.522Z,47.79
2023-02-28T12:13:39.497Z,50.58
2023-02-28T12:14:39.491Z,51.78
2023-02-28T12:15:39.494Z,46.12
2023-02-28T12:16:39.513Z,48.80
2023-02-28T12:17:39.473Z,47.73
2023-02-28T12:18:39.473Z,46.51
2023-02-28T12:19:39.461Z,49.09
2023-02-28T12:20:39.438Z,52.57
2023-02-28T12:21:39.460Z,47.92
2023-02-28T12:22:39.436Z,47.82
2023-02-28T12:23:39.389Z,48.82
2023-02-28T12:24:39.394Z,50.32
2023-02-28T12:25:39.398Z,50.39
2023-02-28T12:26:39.390Z,47.78
2023-02-28T12:27:39.383Z,46.70
2023-02-28T12:28:39.405Z,48.64
2023-02-28T12:29:39.313Z,47.20
2023-02-28T12:30:39.331Z,52.61
2023-02-28T12:31:39.431Z,50.55
2023-02-28T12:32:39.380Z,48.64
2023-02-28T12:33:39.296Z,45.47
2023-02-28T12:34:39.271Z,51.67
2023-02-28T12:35:40.267Z,50.80
2023-02-28T12:36:39.244Z,53.31
2023-02-28T12:37:39.216Z,50.93
2023-02-28T12:38:39.187Z,51.23
2023-02-28T12:39:50.459Z,50.19
2023-02-28T12:40:40.154Z,48.64
2023-02-28T12:41:39.195Z,50.48
2023-02-28T12:43:47.291Z,45.81
2023-02-28T12:44:26.499Z,50.31
2023-02-28T12:45:13.948Z,43.53
2023-02-28T12:46:09.489Z,44.38
2023-02-28T12:46:41.096Z,43.82
2023-02-28T12:47:39.114Z,50.83
2023-02-28T12:48:39.214Z,49.42
2023-02-28T12:49:45.455Z,48.19
2023-02-28T12:51:40.133Z,45.56
2023-02-28T12:52:39.127Z,46.09
2023-02-28T12:53:39.078Z,46.97
2023-02-28T12:54:39.085Z,47.25
2023-02-28T12:55:39.113Z,48.17
2023-02-28T12:56:39.038Z,48.75
2023-02-28T12:57:39.018Z,48.92
2023-02-28T12:58:39.049Z,46.58
2023-02-28T12:59:39.001Z,47.77
2023-02-28T13:00:38.990Z,46.13
2023-02-28T13:01:39.111Z,47.07
2023-02-28T13:02:39.066Z,51.24
2023-02-28T13:03:38.958Z,48.91
2023-02-28T13:04:38.935Z,52.22